Terminal Aerodrome Forecast
Issued by NWS Northern Indiana

Home | Current Version | Previous Version | Text Only | Print | Product List | Glossary Off
Versions: 1 2 3 4 5 6 7 8 9 10 11 12 13 14 15 16 17 18

000
FTUS43 KIWX 292339
TAFFWA
TAF
KFWA 292339Z 3000/3024 10003KT P6SM BKN015
     FM300600 VRB02KT 5SM BR OVC015
      TEMPO 3009/3012 2SM BR OVC008
     FM301400 24006KT P6SM VCSH BKN020
     FM302000 28010KT P6SM SCT020 BKN040=

USA.gov is the U.S. government's official web portal to all federal, state and local government web resources and services.